sensor_id;sensor_type;location;lat;lon;timestamp;temperature;humidity
23233;DHT22;11785;49.500;8.288;2023-02-28T00:00:36;-0.40;98.50
23233;DHT22;11785;49.500;8.288;2023-02-28T00:03:02;-0.40;98.60
23233;DHT22;11785;49.500;8.288;2023-02-28T00:05:28;-0.40;98.70
23233;DHT22;11785;49.500;8.288;2023-02-28T00:07:55;-0.40;99.10
23233;DHT22;11785;49.500;8.288;2023-02-28T00:10:23;-0.40;98.70
23233;DHT22;11785;49.500;8.288;2023-02-28T00:12:53;-0.40;98.70
23233;DHT22;11785;49.500;8.288;2023-02-28T00:15:20;-0.40;99.00
23233;DHT22;11785;49.500;8.288;2023-02-28T00:21:09;-0.40;99.00
23233;DHT22;11785;49.500;8.288;2023-02-28T00:23:35;-0.30;98.90
23233;DHT22;11785;49.500;8.288;2023-02-28T00:26:01;-0.30;98.80
23233;DHT22;11785;49.500;8.288;2023-02-28T00:28:27;-0.20;98.60
23233;DHT22;11785;49.500;8.288;2023-02-28T00:30:52;-0.20;98.60
23233;DHT22;11785;49.500;8.288;2023-02-28T00:33:18;-0.20;98.60
23233;DHT22;11785;49.500;8.288;2023-02-28T00:35:44;-0.20;98.80
23233;DHT22;11785;49.500;8.288;2023-02-28T00:38:12;-0.20;98.80
23233;DHT22;11785;49.500;8.288;2023-02-28T00:40:38;-0.20;98.80
23233;DHT22;11785;49.500;8.288;2023-02-28T00:43:03;-0.20;99.10
23233;DHT22;11785;49.500;8.288;2023-02-28T00:45:29;-0.30;99.60
23233;DHT22;11785;49.500;8.288;2023-02-28T00:47:55;-0.40;99.80
23233;DHT22;11785;49.500;8.288;2023-02-28T00:50:21;-0.40;99.90
23233;DHT22;11785;49.500;8.288;2023-02-28T00:52:47;-0.50;99.90
23233;DHT22;11785;49.500;8.288;2023-02-28T00:55:13;-0.50;99.90
23233;DHT22;11785;49.500;8.288;2023-02-28T00:57:39;-0.50;99.90
23233;DHT22;11785;49.500;8.288;2023-02-28T01:00:06;-0.60;99.90
23233;DHT22;11785;49.500;8.288;2023-02-28T01:02:32;-0.60;99.90
23233;DHT22;11785;49.500;8.288;2023-02-28T01:04:57;-0.70;99.90
23233;DHT22;11785;49.500;8.288;2023-02-28T01:07:37;-0.80;99.90
23233;DHT22;11785;49.500;8.288;2023-02-28T01:10:03;-0.80;99.90
23233;DHT22;11785;49.500;8.288;2023-02-28T01:12:29;-0.80;99.90
23233;DHT22;11785;49.500;8.288;2023-02-28T01:14:55;-0.90;99.90
23233;DHT22;11785;49.500;8.288;2023-02-28T01:17:20;-0.90;99.90
23233;DHT22;11785;49.500;8.288;2023-02-28T01:19:46;-0.90;99.90
23233;DHT22;11785;49.500;8.288;2023-02-28T01:22:11;-0.90;99.90
23233;DHT22;11785;49.500;8.288;2023-02-28T01:24:37;-1.00;99.90
23233;DHT22;11785;49.500;8.288;2023-02-28T01:27:03;-0.90;99.90
23233;DHT22;11785;49.500;8.288;2023-02-28T01:29:28;-1.00;99.90
23233;DHT22;11785;49.500;8.288;2023-02-28T01:31:53;-1.00;99.90
23233;DHT22;11785;49.500;8.288;2023-02-28T01:34:19;-1.10;99.90
23233;DHT22;11785;49.500;8.288;2023-02-28T01:36:45;-1.10;99.90
23233;DHT22;11785;49.500;8.288;2023-02-28T01:39:11;-1.20;99.90
23233;DHT22;11785;49.500;8.288;2023-02-28T01:41:38;-1.20;99.90
23233;DHT22;11785;49.500;8.288;2023-02-28T01:44:05;-1.30;99.90
23233;DHT22;11785;49.500;8.288;2023-02-28T01:46:32;-1.40;99.90
23233;DHT22;11785;49.500;8.288;2023-02-28T01:49:12;-1.30;99.90
23233;DHT22;11785;49.500;8.288;2023-02-28T01:54:09;-1.30;99.90
23233;DHT22;11785;49.500;8.288;2023-02-28T01:56:44;-1.30;99.90
23233;DHT22;11785;49.500;8.288;2023-02-28T01:59:14;-1.30;99.90
23233;DHT22;11785;49.500;8.288;2023-02-28T02:01:43;-1.30;99.90
23233;DHT22;11785;49.500;8.288;2023-02-28T02:04:09;-1.40;99.90
23233;DHT22;11785;49.500;8.288;2023-02-28T02:06:38;-1.40;99.90
23233;DHT22;11785;49.500;8.288;2023-02-28T02:09:05;-1.50;99.90
23233;DHT22;11785;49.500;8.288;2023-02-28T02:11:31;-1.60;99.90
23233;DHT22;11785;49.500;8.288;2023-02-28T02:23:02;-1.50;99.90
23233;DHT22;11785;49.500;8.288;2023-02-28T02:26:14;-1.50;99.90
23233;DHT22;11785;49.500;8.288;2023-02-28T02:28:52;-1.50;99.90
23233;DHT22;11785;49.500;8.288;2023-02-28T02:31:49;-1.50;99.90
23233;DHT22;11785;49.500;8.288;2023-02-28T02:36:51;-1.60;99.90
23233;DHT22;11785;49.500;8.288;2023-02-28T02:42:45;-1.60;99.90
23233;DHT22;11785;49.500;8.288;2023-02-28T02:45:25;-1.50;99.90
23233;DHT22;11785;49.500;8.288;2023-02-28T02:47:51;-1.60;99.90
23233;DHT22;11785;49.500;8.288;2023-02-28T02:50:24;-1.70;99.90
23233;DHT22;11785;49.500;8.288;2023-02-28T02:52:55;-1.80;99.90
23233;DHT22;11785;49.500;8.288;2023-02-28T02:55:22;-1.80;99.90
23233;DHT22;11785;49.500;8.288;2023-02-28T02:57:54;-1.80;99.90
23233;DHT22;11785;49.500;8.288;2023-02-28T03:00:27;-1.90;99.90
23233;DHT22;11785;49.500;8.288;2023-02-28T03:02:56;-1.90;99.90
23233;DHT22;11785;49.500;8.288;2023-02-28T03:05:35;-1.80;99.90
23233;DHT22;11785;49.500;8.288;2023-02-28T03:08:04;-1.90;99.90
23233;DHT22;11785;49.500;8.288;2023-02-28T03:10:37;-1.90;99.90
23233;DHT22;11785;49.500;8.288;2023-02-28T03:13:11;-1.90;99.90
23233;DHT22;11785;49.500;8.288;2023-02-28T03:15:51;-1.90;99.90
23233;DHT22;11785;49.500;8.288;2023-02-28T03:18:29;-1.90;99.90
23233;DHT22;11785;49.500;8.288;2023-02-28T03:21:08;-1.90;99.90
23233;DHT22;11785;49.500;8.288;2023-02-28T03:23:59;-2.00;99.90
23233;DHT22;11785;49.500;8.288;2023-02-28T03:29:46;-2.00;99.90
23233;DHT22;11785;49.500;8.288;2023-02-28T03:32:33;-2.10;99.90
23233;DHT22;11785;49.500;8.288;2023-02-28T03:38:28;-2.20;99.90
23233;DHT22;11785;49.500;8.288;2023-02-28T03:41:06;-2.20;99.90
23233;DHT22;11785;49.500;8.288;2023-02-28T03:43:36;-2.20;99.90
23233;DHT22;11785;49.500;8.288;2023-02-28T03:46:08;-2.20;99.90
23233;DHT22;11785;49.500;8.288;2023-02-28T03:48:41;-2.20;99.90
23233;DHT22;11785;49.500;8.288;2023-02-28T03:51:10;-2.30;99.90
23233;DHT22;11785;49.500;8.288;2023-02-28T03:54:01;-2.30;99.90
23233;DHT22;11785;49.500;8.288;2023-02-28T03:56:33;-2.30;99.90
23233;DHT22;11785;49.500;8.288;2023-02-28T04:00:02;-2.30;99.90
23233;DHT22;11785;49.500;8.288;2023-02-28T04:02:07;-2.20;99.90
23233;DHT22;11785;49.500;8.288;2023-02-28T04:04:33;-2.20;99.90
23233;DHT22;11785;49.500;8.288;2023-02-28T04:07:08;-2.10;99.90
23233;DHT22;11785;49.500;8.288;2023-02-28T04:09:34;-2.20;99.90
23233;DHT22;11785;49.500;8.288;2023-02-28T04:12:00;-2.20;99.90
23233;DHT22;11785;49.500;8.288;2023-02-28T04:14:26;-2.20;99.90
23233;DHT22;11785;49.500;8.288;2023-02-28T04:16:51;-2.20;99.90
23233;DHT22;11785;49.500;8.288;2023-02-28T04:19:18;-2.20;99.90
23233;DHT22;11785;49.500;8.288;2023-02-28T04:21:49;-2.30;99.90
23233;DHT22;11785;49.500;8.288;2023-02-28T04:24:17;-2.20;99.90
23233;DHT22;11785;49.500;8.288;2023-02-28T04:26:46;-2.20;99.90
23233;DHT22;11785;49.500;8.288;2023-02-28T04:29:14;-2.30;99.90
23233;DHT22;11785;49.500;8.288;2023-02-28T04:31:39;-2.30;99.90
23233;DHT22;11785;49.500;8.288;2023-02-28T04:34:05;-2.30;99.90
23233;DHT22;11785;49.500;8.288;2023-02-28T04:36:31;-2.30;99.90
23233;DHT22;11785;49.500;8.288;2023-02-28T04:38:57;-2.20;99.90
23233;DHT22;11785;49.500;8.288;2023-02-28T04:41:23;-2.20;99.90
23233;DHT22;11785;49.500;8.288;2023-02-28T04:43:50;-2.20;99.90
23233;DHT22;11785;49.500;8.288;2023-02-28T04:46:16;-2.30;99.90
23233;DHT22;11785;49.500;8.288;2023-02-28T04:48:42;-2.30;99.90
23233;DHT22;11785;49.500;8.288;2023-02-28T04:51:11;-2.30;99.90
23233;DHT22;11785;49.500;8.288;2023-02-28T04:53:39;-2.30;99.90
23233;DHT22;11785;49.500;8.288;2023-02-28T04:56:05;-2.30;99.90
23233;DHT22;11785;49.500;8.288;2023-02-28T04:58:32;-2.30;99.90
23233;DHT22;11785;49.500;8.288;2023-02-28T05:01:02;-2.40;99.90
23233;DHT22;11785;49.500;8.288;2023-02-28T05:03:28;-2.40;99.90
23233;DHT22;11785;49.500;8.288;2023-02-28T05:05:54;-2.30;99.90
23233;DHT22;11785;49.500;8.288;2023-02-28T05:08:19;-2.30;99.90
23233;DHT22;11785;49.500;8.288;2023-02-28T05:10:45;-2.30;99.90
23233;DHT22;11785;49.500;8.288;2023-02-28T05:13:13;-2.40;99.90
23233;DHT22;11785;49.500;8.288;2023-02-28T05:15:39;-2.40;99.90
23233;DHT22;11785;49.500;8.288;2023-02-28T05:18:05;-2.30;99.90
23233;DHT22;11785;49.500;8.288;2023-02-28T05:20:30;-2.40;99.90
23233;DHT22;11785;49.500;8.288;2023-02-28T05:22:57;-2.40;99.90
23233;DHT22;11785;49.500;8.288;2023-02-28T05:25:24;-2.30;99.90
23233;DHT22;11785;49.500;8.288;2023-02-28T05:27:49;-2.30;99.90
23233;DHT22;11785;49.500;8.288;2023-02-28T05:30:15;-2.20;99.90
23233;DHT22;11785;49.500;8.288;2023-02-28T05:32:41;-2.20;99.90
23233;DHT22;11785;49.500;8.288;2023-02-28T05:35:09;-2.10;99.90
23233;DHT22;11785;49.500;8.288;2023-02-28T05:37:35;-2.10;99.90
23233;DHT22;11785;49.500;8.288;2023-02-28T05:40:01;-2.00;99.90
23233;DHT22;11785;49.500;8.288;2023-02-28T05:42:26;-2.00;99.90
23233;DHT22;11785;49.500;8.288;2023-02-28T05:44:52;-1.90;99.90
23233;DHT22;11785;49.500;8.288;2023-02-28T05:47:18;-1.90;99.90
23233;DHT22;11785;49.500;8.288;2023-02-28T05:49:43;-1.90;99.90
23233;DHT22;11785;49.500;8.288;2023-02-28T05:52:09;-1.90;99.90
23233;DHT22;11785;49.500;8.288;2023-02-28T05:54:34;-1.90;99.90
23233;DHT22;11785;49.500;8.288;2023-02-28T05:57:00;-1.80;99.90
23233;DHT22;11785;49.500;8.288;2023-02-28T05:59:25;-1.80;99.90
23233;DHT22;11785;49.500;8.288;2023-02-28T06:01:51;-1.80;99.90
23233;DHT22;11785;49.500;8.288;2023-02-28T06:04:20;-1.80;99.90
23233;DHT22;11785;49.500;8.288;2023-02-28T06:06:47;-1.70;99.90
23233;DHT22;11785;49.500;8.288;2023-02-28T06:09:12;-1.70;99.90
23233;DHT22;11785;49.500;8.288;2023-02-28T06:11:38;-1.70;99.90
23233;DHT22;11785;49.500;8.288;2023-02-28T06:14:04;-1.60;99.90
23233;DHT22;11785;49.500;8.288;2023-02-28T06:16:32;-1.60;99.90
23233;DHT22;11785;49.500;8.288;2023-02-28T06:18:59;-1.60;99.90
23233;DHT22;11785;49.500;8.288;2023-02-28T06:21:26;-1.50;99.90
23233;DHT22;11785;49.500;8.288;2023-02-28T06:23:53;-1.50;99.90
23233;DHT22;11785;49.500;8.288;2023-02-28T06:26:19;-1.50;99.90
23233;DHT22;11785;49.500;8.288;2023-02-28T06:28:44;-1.50;99.90
23233;DHT22;11785;49.500;8.288;2023-02-28T06:31:12;-1.50;99.90
23233;DHT22;11785;49.500;8.288;2023-02-28T06:33:39;-1.40;99.90
23233;DHT22;11785;49.500;8.288;2023-02-28T06:36:06;-1.40;99.90
23233;DHT22;11785;49.500;8.288;2023-02-28T06:38:32;-1.40;99.90
23233;DHT22;11785;49.500;8.288;2023-02-28T06:40:59;-1.40;99.90
23233;DHT22;11785;49.500;8.288;2023-02-28T06:43:28;-1.30;99.90
23233;DHT22;11785;49.500;8.288;2023-02-28T06:45:55;-1.30;99.90
23233;DHT22;11785;49.500;8.288;2023-02-28T06:48:21;-1.30;99.90
23233;DHT22;11785;49.500;8.288;2023-02-28T06:50:47;-1.20;99.90
23233;DHT22;11785;49.500;8.288;2023-02-28T06:53:13;-1.20;99.90
23233;DHT22;11785;49.500;8.288;2023-02-28T06:55:39;-1.20;99.90
23233;DHT22;11785;49.500;8.288;2023-02-28T06:58:05;-1.10;99.90
23233;DHT22;11785;49.500;8.288;2023-02-28T07:00:44;-1.10;99.90
23233;DHT22;11785;49.500;8.288;2023-02-28T07:03:11;-1.00;99.90
23233;DHT22;11785;49.500;8.288;2023-02-28T07:05:39;-0.90;99.90
23233;DHT22;11785;49.500;8.288;2023-02-28T07:08:05;-0.90;99.90
23233;DHT22;11785;49.500;8.288;2023-02-28T07:10:32;-0.80;99.90
23233;DHT22;11785;49.500;8.288;2023-02-28T07:12:59;-0.80;99.90
23233;DHT22;11785;49.500;8.288;2023-02-28T07:15:24;-0.80;99.90
23233;DHT22;11785;49.500;8.288;2023-02-28T07:17:50;-0.80;99.90
23233;DHT22;11785;49.500;8.288;2023-02-28T07:20:16;-0.80;99.90
23233;DHT22;11785;49.500;8.288;2023-02-28T07:22:41;-0.80;99.90
23233;DHT22;11785;49.500;8.288;2023-02-28T07:25:07;-0.70;99.90
23233;DHT22;11785;49.500;8.288;2023-02-28T07:27:33;-0.60;99.90
23233;DHT22;11785;49.500;8.288;2023-02-28T07:29:59;-0.60;99.90
23233;DHT22;11785;49.500;8.288;2023-02-28T07:32:27;-0.50;99.90
23233;DHT22;11785;49.500;8.288;2023-02-28T07:34:53;-0.40;99.90
23233;DHT22;11785;49.500;8.288;2023-02-28T07:37:19;-0.30;99.90
23233;DHT22;11785;49.500;8.288;2023-02-28T07:39:45;-0.30;99.90
23233;DHT22;11785;49.500;8.288;2023-02-28T07:42:10;-0.20;99.90
23233;DHT22;11785;49.500;8.288;2023-02-28T07:44:38;-0.10;99.90
23233;DHT22;11785;49.500;8.288;2023-02-28T07:47:09;0.00;99.90
23233;DHT22;11785;49.500;8.288;2023-02-28T07:49:38;0.10;99.90
23233;DHT22;11785;49.500;8.288;2023-02-28T07:52:05;0.20;99.90
23233;DHT22;11785;49.500;8.288;2023-02-28T07:54:32;0.20;99.90
23233;DHT22;11785;49.500;8.288;2023-02-28T07:56:57;0.40;99.90
23233;DHT22;11785;49.500;8.288;2023-02-28T07:59:23;0.50;99.90
23233;DHT22;11785;49.500;8.288;2023-02-28T08:01:49;0.60;99.90
23233;DHT22;11785;49.500;8.288;2023-02-28T08:04:16;0.70;99.90
23233;DHT22;11785;49.500;8.288;2023-02-28T08:06:42;0.90;99.90
23233;DHT22;11785;49.500;8.288;2023-02-28T08:09:07;1.00;99.90
23233;DHT22;11785;49.500;8.288;2023-02-28T08:11:33;1.20;99.60
23233;DHT22;11785;49.500;8.288;2023-02-28T08:13:58;1.40;98.60
23233;DHT22;11785;49.500;8.288;2023-02-28T08:16:24;1.40;97.90
23233;DHT22;11785;49.500;8.288;2023-02-28T08:18:50;1.50;98.00
23233;DHT22;11785;49.500;8.288;2023-02-28T08:21:16;1.70;97.10
23233;DHT22;11785;49.500;8.288;2023-02-28T08:23:42;1.80;96.30
23233;DHT22;11785;49.500;8.288;2023-02-28T08:26:07;1.80;96.30
23233;DHT22;11785;49.500;8.288;2023-02-28T08:28:33;2.00;96.00
23233;DHT22;11785;49.500;8.288;2023-02-28T08:30:59;2.10;95.70
23233;DHT22;11785;49.500;8.288;2023-02-28T08:33:25;2.20;94.80
23233;DHT22;11785;49.500;8.288;2023-02-28T08:35:55;2.40;93.70
23233;DHT22;11785;49.500;8.288;2023-02-28T08:38:22;2.60;92.80
23233;DHT22;11785;49.500;8.288;2023-02-28T08:40:47;2.70;92.20
23233;DHT22;11785;49.500;8.288;2023-02-28T08:43:13;2.60;92.10
23233;DHT22;11785;49.500;8.288;2023-02-28T08:45:39;2.70;91.80
23233;DHT22;11785;49.500;8.288;2023-02-28T08:48:04;2.80;91.30
23233;DHT22;11785;49.500;8.288;2023-02-28T08:50:30;3.00;90.80
23233;DHT22;11785;49.500;8.288;2023-02-28T08:52:55;2.90;90.70
23233;DHT22;11785;49.500;8.288;2023-02-28T08:55:21;2.80;90.80
23233;DHT22;11785;49.500;8.288;2023-02-28T08:57:46;2.80;91.00
23233;DHT22;11785;49.500;8.288;2023-02-28T09:00:12;2.60;91.60
23233;DHT22;11785;49.500;8.288;2023-02-28T09:02:39;2.70;91.30
23233;DHT22;11785;49.500;8.288;2023-02-28T09:05:05;2.90;90.70
23233;DHT22;11785;49.500;8.288;2023-02-28T09:07:31;3.00;89.90
23233;DHT22;11785;49.500;8.288;2023-02-28T09:09:56;3.10;89.30
23233;DHT22;11785;49.500;8.288;2023-02-28T09:12:24;3.10;89.10
23233;DHT22;11785;49.500;8.288;2023-02-28T09:14:51;3.20;87.80
23233;DHT22;11785;49.500;8.288;2023-02-28T09:17:17;3.20;86.80
23233;DHT22;11785;49.500;8.288;2023-02-28T09:19:43;3.20;87.20
23233;DHT22;11785;49.500;8.288;2023-02-28T09:22:10;3.20;87.30
23233;DHT22;11785;49.500;8.288;2023-02-28T09:24:37;3.40;85.80
23233;DHT22;11785;49.500;8.288;2023-02-28T09:27:04;3.60;83.60
23233;DHT22;11785;49.500;8.288;2023-02-28T09:29:31;3.60;84.10
23233;DHT22;11785;49.500;8.288;2023-02-28T09:31:57;3.90;81.10
23233;DHT22;11785;49.500;8.288;2023-02-28T09:34:27;4.00;80.20
23233;DHT22;11785;49.500;8.288;2023-02-28T09:36:53;3.90;79.70
23233;DHT22;11785;49.500;8.288;2023-02-28T09:39:21;4.00;79.60
23233;DHT22;11785;49.500;8.288;2023-02-28T09:41:50;3.90;79.20
23233;DHT22;11785;49.500;8.288;2023-02-28T09:44:36;4.00;79.20
23233;DHT22;11785;49.500;8.288;2023-02-28T09:49:41;4.00;78.20
23233;DHT22;11785;49.500;8.288;2023-02-28T09:52:12;4.10;77.20
23233;DHT22;11785;49.500;8.288;2023-02-28T09:54:39;4.30;76.10
23233;DHT22;11785;49.500;8.288;2023-02-28T09:57:19;4.60;72.70
23233;DHT22;11785;49.500;8.288;2023-02-28T10:00:56;4.50;71.90
23233;DHT22;11785;49.500;8.288;2023-02-28T10:05:41;4.80;70.40
23233;DHT22;11785;49.500;8.288;2023-02-28T10:08:18;4.90;69.90
23233;DHT22;11785;49.500;8.288;2023-02-28T10:10:47;5.10;67.90
23233;DHT22;11785;49.500;8.288;2023-02-28T10:15:51;5.00;67.40
23233;DHT22;11785;49.500;8.288;2023-02-28T10:18:22;4.70;69.70
23233;DHT22;11785;49.500;8.288;2023-02-28T10:20:50;4.70;70.10
23233;DHT22;11785;49.500;8.288;2023-02-28T10:23:31;5.00;69.80
23233;DHT22;11785;49.500;8.288;2023-02-28T10:26:26;5.00;67.30
23233;DHT22;11785;49.500;8.288;2023-02-28T10:28:54;5.20;66.70
23233;DHT22;11785;49.500;8.288;2023-02-28T10:31:20;5.30;64.90
23233;DHT22;11785;49.500;8.288;2023-02-28T10:33:46;5.40;63.80
23233;DHT22;11785;49.500;8.288;2023-02-28T10:36:15;5.40;63.90
23233;DHT22;11785;49.500;8.288;2023-02-28T10:38:43;5.40;61.80
23233;DHT22;11785;49.500;8.288;2023-02-28T10:41:12;5.40;62.70
23233;DHT22;11785;49.500;8.288;2023-02-28T10:43:39;5.30;62.50
23233;DHT22;11785;49.500;8.288;2023-02-28T10:51:10;6.10;59.80
23233;DHT22;11785;49.500;8.288;2023-02-28T10:53:51;6.00;59.90
23233;DHT22;11785;49.500;8.288;2023-02-28T10:58:48;5.30;60.00
23233;DHT22;11785;49.500;8.288;2023-02-28T11:03:46;6.00;59.80
23233;DHT22;11785;49.500;8.288;2023-02-28T11:06:34;6.10;59.80
23233;DHT22;11785;49.500;8.288;2023-02-28T11:09:22;5.70;59.90
23233;DHT22;11785;49.500;8.288;2023-02-28T11:11:50;5.50;59.90
23233;DHT22;11785;49.500;8.288;2023-02-28T11:15:14;5.60;59.90
23233;DHT22;11785;49.500;8.288;2023-02-28T11:17:24;5.60;59.90
23233;DHT22;11785;49.500;8.288;2023-02-28T11:19:52;5.90;59.80
23233;DHT22;11785;49.500;8.288;2023-02-28T11:22:21;6.30;59.70
23233;DHT22;11785;49.500;8.288;2023-02-28T11:24:52;6.00;59.80
23233;DHT22;11785;49.500;8.288;2023-02-28T11:27:26;6.10;59.80
23233;DHT22;11785;49.500;8.288;2023-02-28T11:29:52;6.20;59.80
23233;DHT22;11785;49.500;8.288;2023-02-28T11:32:22;6.40;59.70
23233;DHT22;11785;49.500;8.288;2023-02-28T11:35:03;6.50;59.70
23233;DHT22;11785;49.500;8.288;2023-02-28T11:37:31;6.40;59.70
23233;DHT22;11785;49.500;8.288;2023-02-28T11:39:57;6.40;59.70
23233;DHT22;11785;49.500;8.288;2023-02-28T11:42:31;6.30;59.70
23233;DHT22;11785;49.500;8.288;2023-02-28T11:48:48;7.00;59.60
23233;DHT22;11785;49.500;8.288;2023-02-28T11:51:41;7.50;59.40
23233;DHT22;11785;49.500;8.288;2023-02-28T11:54:51;7.50;59.40
23233;DHT22;11785;49.500;8.288;2023-02-28T12:05:46;7.10;59.50
23233;DHT22;11785;49.500;8.288;2023-02-28T12:19:47;8.90;59.00
23233;DHT22;11785;49.500;8.288;2023-02-28T12:22:57;9.80;58.80
23233;DHT22;11785;49.500;8.288;2023-02-28T12:28:14;11.90;58.20
23233;DHT22;11785;49.500;8.288;2023-02-28T12:30:51;12.30;58.10
23233;DHT22;11785;49.500;8.288;2023-02-28T12:33:22;12.70;58.00
23233;DHT22;11785;49.500;8.288;2023-02-28T12:35:54;11.80;58.10
23233;DHT22;11785;49.500;8.288;2023-02-28T12:38:41;11.30;58.30
23233;DHT22;11785;49.500;8.288;2023-02-28T12:41:19;11.60;58.20
23233;DHT22;11785;49.500;8.288;2023-02-28T12:43:52;11.70;58.10
23233;DHT22;11785;49.500;8.288;2023-02-28T12:46:41;12.80;57.90
23233;DHT22;11785;49.500;8.288;2023-02-28T12:49:17;11.90;58.10
23233;DHT22;11785;49.500;8.288;2023-02-28T12:51:45;12.10;58.00
23233;DHT22;11785;49.500;8.288;2023-02-28T12:54:25;13.10;57.90
23233;DHT22;11785;49.500;8.288;2023-02-28T12:57:02;14.10;57.60
23233;DHT22;11785;49.500;8.288;2023-02-28T12:59:41;11.50;58.10
23233;DHT22;11785;49.500;8.288;2023-02-28T13:05:19;9.70;58.60
23233;DHT22;11785;49.500;8.288;2023-02-28T13:10:19;8.20;59.00
23233;DHT22;11785;49.500;8.288;2023-02-28T13:12:50;9.70;58.70
23233;DHT22;11785;49.500;8.288;2023-02-28T13:15:27;11.50;58.30
23233;DHT22;11785;49.500;8.288;2023-02-28T13:17:56;12.70;57.90
23233;DHT22;11785;49.500;8.288;2023-02-28T13:20:25;13.20;57.70
23233;DHT22;11785;49.500;8.288;2023-02-28T13:22:53;12.90;57.80
23233;DHT22;11785;49.500;8.288;2023-02-28T13:27:52;14.70;57.30
23233;DHT22;11785;49.500;8.288;2023-02-28T13:35:46;13.60;57.60
23233;DHT22;11785;49.500;8.288;2023-02-28T13:38:17;15.00;57.30
23233;DHT22;11785;49.500;8.288;2023-02-28T13:40:43;14.90;57.20
23233;DHT22;11785;49.500;8.288;2023-02-28T13:43:09;15.80;57.00
23233;DHT22;11785;49.500;8.288;2023-02-28T13:45:34;16.60;56.80
23233;DHT22;11785;49.500;8.288;2023-02-28T13:48:24;16.70;56.80
23233;DHT22;11785;49.500;8.288;2023-02-28T13:50:51;16.60;56.80
23233;DHT22;11785;49.500;8.288;2023-02-28T13:53:51;15.30;57.10
23233;DHT22;11785;49.500;8.288;2023-02-28T13:56:49;16.60;56.80
23233;DHT22;11785;49.500;8.288;2023-02-28T13:59:28;17.60;56.60
23233;DHT22;11785;49.500;8.288;2023-02-28T14:04:53;17.00;56.70
23233;DHT22;11785;49.500;8.288;2023-02-28T14:07:26;16.00;56.90
23233;DHT22;11785;49.500;8.288;2023-02-28T14:10:01;15.60;57.00
23233;DHT22;11785;49.500;8.288;2023-02-28T14:12:56;16.00;56.90
23233;DHT22;11785;49.500;8.288;2023-02-28T14:15:54;15.50;57.00
23233;DHT22;11785;49.500;8.288;2023-02-28T14:18:37;15.50;57.00
23233;DHT22;11785;49.500;8.288;2023-02-28T14:21:34;14.70;57.20
23233;DHT22;11785;49.500;8.288;2023-02-28T14:24:22;13.40;57.50
23233;DHT22;11785;49.500;8.288;2023-02-28T14:32:44;15.30;57.10
23233;DHT22;11785;49.500;8.288;2023-02-28T14:38:05;15.50;57.00
23233;DHT22;11785;49.500;8.288;2023-02-28T14:40:34;16.40;56.80
23233;DHT22;11785;49.500;8.288;2023-02-28T14:43:03;17.10;56.60
23233;DHT22;11785;49.500;8.288;2023-02-28T14:45:31;17.40;56.60
23233;DHT22;11785;49.500;8.288;2023-02-28T14:47:59;16.30;56.80
23233;DHT22;11785;49.500;8.288;2023-02-28T14:50:34;16.50;56.80
23233;DHT22;11785;49.500;8.288;2023-02-28T14:53:00;16.00;56.90
23233;DHT22;11785;49.500;8.288;2023-02-28T14:55:30;15.20;57.00
23233;DHT22;11785;49.500;8.288;2023-02-28T14:58:01;16.20;56.80
23233;DHT22;11785;49.500;8.288;2023-02-28T15:00:30;16.20;56.80
23233;DHT22;11785;49.500;8.288;2023-02-28T15:02:58;16.60;56.70
23233;DHT22;11785;49.500;8.288;2023-02-28T15:08:04;13.90;57.30
23233;DHT22;11785;49.500;8.288;2023-02-28T15:10:31;14.10;57.30
23233;DHT22;11785;49.500;8.288;2023-02-28T15:13:11;14.20;57.30
23233;DHT22;11785;49.500;8.288;2023-02-28T15:18:56;13.60;57.50
23233;DHT22;11785;49.500;8.288;2023-02-28T15:21:25;13.10;57.60
23233;DHT22;11785;49.500;8.288;2023-02-28T15:23:56;13.40;57.50
23233;DHT22;11785;49.500;8.288;2023-02-28T15:26:26;14.00;57.40
23233;DHT22;11785;49.500;8.288;2023-02-28T15:28:59;14.10;57.30
23233;DHT22;11785;49.500;8.288;2023-02-28T15:31:35;14.10;57.40
23233;DHT22;11785;49.500;8.288;2023-02-28T15:34:05;14.00;57.40
23233;DHT22;11785;49.500;8.288;2023-02-28T15:36:33;13.80;57.40
23233;DHT22;11785;49.500;8.288;2023-02-28T15:39:01;13.40;57.50
23233;DHT22;11785;49.500;8.288;2023-02-28T15:41:36;12.80;57.60
23233;DHT22;11785;49.500;8.288;2023-02-28T15:44:34;12.90;57.60
23233;DHT22;11785;49.500;8.288;2023-02-28T15:47:22;13.60;57.50
23233;DHT22;11785;49.500;8.288;2023-02-28T15:52:19;13.60;57.50
23233;DHT22;11785;49.500;8.288;2023-02-28T15:54:46;13.40;57.50
23233;DHT22;11785;49.500;8.288;2023-02-28T15:57:20;12.70;57.70
23233;DHT22;11785;49.500;8.288;2023-02-28T16:00:00;12.80;57.70
23233;DHT22;11785;49.500;8.288;2023-02-28T16:02:34;12.00;57.80
23233;DHT22;11785;49.500;8.288;2023-02-28T16:05:28;11.60;58.00
23233;DHT22;11785;49.500;8.288;2023-02-28T16:08:01;12.10;57.80
23233;DHT22;11785;49.500;8.288;2023-02-28T16:10:28;11.60;58.00
23233;DHT22;11785;49.500;8.288;2023-02-28T16:12:55;11.60;58.00
23233;DHT22;11785;49.500;8.288;2023-02-28T16:15:22;11.20;58.10
23233;DHT22;11785;49.500;8.288;2023-02-28T16:17:49;10.80;58.20
23233;DHT22;11785;49.500;8.288;2023-02-28T16:20:26;10.80;58.20
23233;DHT22;11785;49.500;8.288;2023-02-28T16:22:52;10.30;58.30
23233;DHT22;11785;49.500;8.288;2023-02-28T16:25:37;10.60;58.20
23233;DHT22;11785;49.500;8.288;2023-02-28T16:28:05;10.60;58.20
23233;DHT22;11785;49.500;8.288;2023-02-28T16:30:33;10.50;58.30
23233;DHT22;11785;49.500;8.288;2023-02-28T16:32:59;9.40;58.50
23233;DHT22;11785;49.500;8.288;2023-02-28T16:35:26;8.40;58.80
23233;DHT22;11785;49.500;8.288;2023-02-28T16:37:52;7.70;59.00
23233;DHT22;11785;49.500;8.288;2023-02-28T16:40:21;7.00;59.20
23233;DHT22;11785;49.500;8.288;2023-02-28T16:42:48;6.60;59.30
23233;DHT22;11785;49.500;8.288;2023-02-28T16:45:25;6.50;59.40
23233;DHT22;11785;49.500;8.288;2023-02-28T16:47:51;6.40;59.40
23233;DHT22;11785;49.500;8.288;2023-02-28T16:50:25;6.20;59.40
23233;DHT22;11785;49.500;8.288;2023-02-28T16:52:51;5.90;59.50
23233;DHT22;11785;49.500;8.288;2023-02-28T16:55:21;5.70;59.60
23233;DHT22;11785;49.500;8.288;2023-02-28T16:57:53;5.50;59.60
23233;DHT22;11785;49.500;8.288;2023-02-28T17:00:19;5.30;59.70
23233;DHT22;11785;49.500;8.288;2023-02-28T17:02:45;5.20;59.70
23233;DHT22;11785;49.500;8.288;2023-02-28T17:05:14;5.10;59.80
23233;DHT22;11785;49.500;8.288;2023-02-28T17:07:40;4.90;59.80
23233;DHT22;11785;49.500;8.288;2023-02-28T17:10:15;4.80;59.90
23233;DHT22;11785;49.500;8.288;2023-02-28T17:12:41;4.70;59.90
23233;DHT22;11785;49.500;8.288;2023-02-28T17:15:07;4.60;59.90
23233;DHT22;11785;49.500;8.288;2023-02-28T17:17:33;4.50;59.90
23233;DHT22;11785;49.500;8.288;2023-02-28T17:19:58;4.40;60.70
23233;DHT22;11785;49.500;8.288;2023-02-28T17:22:24;4.30;61.90
23233;DHT22;11785;49.500;8.288;2023-02-28T17:24:51;4.20;62.70
23233;DHT22;11785;49.500;8.288;2023-02-28T17:27:21;4.20;63.50
23233;DHT22;11785;49.500;8.288;2023-02-28T17:29:47;4.10;64.00
23233;DHT22;11785;49.500;8.288;2023-02-28T17:32:13;4.00;65.30
23233;DHT22;11785;49.500;8.288;2023-02-28T17:34:38;4.00;65.60
23233;DHT22;11785;49.500;8.288;2023-02-28T17:37:04;4.00;65.60
23233;DHT22;11785;49.500;8.288;2023-02-28T17:39:29;3.90;67.00